Flight Track Log - Related Links

Times and Time Zones

All times are in EDT time to prevent confusion due to time zone crossing. See the ASQ4540 flight status page for this flight to view local times or setup timezone preferences in your user account.

Time Position Orientation Groundspeed Altitude Reporting Facility
EDT Latitude Longitude Course Direction KTS MPH feet Rate Location/Type
Thu 10:50:39 PM 30.3583 -87.2664 268° West 279 321 6,500  Level Jacksonville Center
Thu 10:51:00 PM 30.5559 -87.6014 285° West  Level FlightAware Approximate
Thu 10:52:00 PM 30.5761 -87.7016 282° West  Level FlightAware Approximate
Thu 10:52:50 PM 30.4186 -87.4281 293° West 279 321 11,000  Level Houston Center
Thu 10:53:00 PM 30.5944 -87.8024 282° West  Level FlightAware Approximate
Thu 10:53:51 PM 30.4531 -87.5308 291° West 333 383 11,800  Level Houston Center
Thu 10:54:00 PM 30.6139 -87.9029 283° West  Level FlightAware Approximate
Thu 10:54:52 PM 30.4892 -87.6403 291° West 357 411 13,300  Level Houston Center
Thu 10:55:53 PM 30.5328 -87.7711 291° West 362 417 15,100 1,623 Climbing Houston Center
Thu 10:56:54 PM 30.5694 -87.8817 291° West 364 419 16,600 1,366 Climbing Houston Center
Thu 10:57:56 PM 30.6047 -87.9928 290° West 366 421 17,900 1,366 Climbing Houston Center
Thu 10:58:57 PM 30.6422 -88.1036 291° West 369 425 19,400 1,475 Climbing Houston Center
Thu 10:59:58 PM 30.6778 -88.2144 290° West 366 421 20,900 1,525 Climbing Houston Center
Thu 11:00:59 PM 30.7144 -88.3261 291° West 367 422 22,500 1,512 Climbing Houston Center
Thu 11:02:01 PM 30.7183 -88.4442 272° West 370 426 24,000 1,415 Climbing Houston Center
Thu 11:03:02 PM 30.7108 -88.5564 266° West 367 422 25,400 1,475 Climbing Houston Center
Thu 11:04:03 PM 30.7017 -88.6803 265° West 365 420 27,000 1,279 Climbing Houston Center
Thu 11:05:04 PM 30.6928 -88.7978 265° West 364 419 28,000 492 Climbing Houston Center
Thu 11:06:05 PM 30.6819 -88.9428 265° West 398 458 28,000  Level Houston Center
Thu 11:07:07 PM 30.6719 -89.0797 265° West 425 489 28,000  Level Houston Center
Thu 11:08:08 PM 30.6617 -89.2222 265° West 442 509 28,000  Level Houston Center
Thu 11:09:09 PM 30.6503 -89.3678 265° West 452 520 28,000  Level Houston Center
Thu 11:10:10 PM 30.6394 -89.5139 265° West 457 526 28,000  Level Houston Center
Thu 11:11:12 PM 30.6286 -89.6594 265° West 459 528 28,000  Level Houston Center
Thu 11:12:13 PM 30.6172 -89.8042 265° West 458 527 28,000  Level Houston Center
Thu 11:13:14 PM 30.6025 -89.9783 264° West 460 529 28,000  Level Houston Center
Thu 11:14:15 PM 30.5900 -90.1236 264° West 459 528 28,000  Level Houston Center
Thu 11:15:16 PM 30.5769 -90.2686 264° West 457 526 28,000  Level Houston Center
Thu 11:16:17 PM 30.5639 -90.4147 264° West 458 527 28,000  Level Houston Center
Thu 11:17:18 PM 30.5528 -90.5606 265° West 457 526 28,000  Level Houston Center
Thu 11:18:20 PM 30.5383 -90.7081 264° West 461 531 28,000  Level Houston Center
Thu 11:19:21 PM 30.5297 -90.8542 266° West 457 526 28,000  Level Houston Center
Thu 11:20:22 PM 30.5175 -91.0000 264° West 456 525 28,000  Level Houston Center
Thu 11:21:23 PM 30.5053 -91.1464 265° West 456 525 28,000  Level Houston Center
Thu 11:22:24 PM 30.4906 -91.3231 265° West 460 529 28,000  Level Houston Center
Thu 11:23:25 PM 30.4783 -91.4564 264° West 459 528 28,000  Level Houston Center
Thu 11:24:26 PM 30.4644 -91.6186 264° West 462 532 28,000  Level Houston Center
Thu 11:25:27 PM 30.4525 -91.7553 264° West 465 535 28,000  Level Houston Center
Thu 11:26:28 PM 30.4400 -91.9031 264° West 462 532 28,000  Level Houston Center
Thu 11:27:29 PM 30.4258 -92.0519 264° West 461 531 28,000  Level Houston Center
Thu 11:28:30 PM 30.4100 -92.2311 264° West 464 534 28,000  Level Houston Center
Thu 11:29:31 PM 30.3972 -92.3794 264° West 464 534 28,000  Level Houston Center
Thu 11:30:32 PM 30.3842 -92.5267 264° West 462 532 28,000  Level Houston Center
Thu 11:31:33 PM 30.3697 -92.6736 264° West 461 531 28,000  Level Houston Center
Thu 11:32:34 PM 30.3550 -92.8194 263° West 460 529 28,000  Level Houston Center
Thu 11:33:35 PM 30.3411 -92.9650 264° West 457 526 28,000  Level Houston Center
Thu 11:34:36 PM 30.3269 -93.1097 264° West 454 522 28,000  Level Houston Center
Thu 11:35:37 PM 30.3122 -93.2553 263° West 454 522 28,000 -49 Level Houston Center
Thu 11:36:38 PM 30.2964 -93.4014 263° West 454 522 27,900 -1,180 Descending Houston Center
Thu 11:37:39 PM 30.2822 -93.5561 264° West 459 528 25,600 -2,410 Descending Houston Center
Thu 11:38:40 PM 30.2672 -93.7044 263° West 460 529 23,000 -2,557 Descending Houston Center
Thu 11:39:41 PM 30.2525 -93.8464 263° West 446 513 20,400 -2,508 Descending Houston Center
Thu 11:40:42 PM 30.2383 -93.9828 263° West 432 497 17,900 -2,459 Descending Houston Center
Thu 11:41:43 PM 30.2233 -94.1183 263° West 428 493 15,400 -2,459 Descending Houston Center
Thu 11:42:44 PM 30.2069 -94.2442 261° West 401 461 12,900 -1,869 Descending Houston Center
Thu 11:43:45 PM 30.1750 -94.3556 252° West 371 427 11,600 -1,230 Descending Houston Center
Thu 11:44:46 PM 30.1461 -94.4492 250° West 317 365 10,400 -1,377 Descending Houston Center
Thu 11:45:47 PM 30.1192 -94.5369 250° West 287 330 8,800 -1,377 Descending Houston Center
Thu 11:46:48 PM 30.0939 -94.6194 251° West 277 319 7,600 -1,279 Descending Houston Center
Thu 11:47:49 PM 30.0692 -94.7028 251° West 275 316 6,200 -1,289 Descending Houston Center
Thu 11:48:49 PM 30.0439 -94.7833 250° West 268 308 5,000 -1,091 Descending Houston Center
Thu 11:49:50 PM 30.0150 -94.8789 251° West 264 304 4,000 -492 Descending Houston Center
Thu 11:50:51 PM 29.9903 -94.9575 250° West 263 303 4,000  Level Houston Center
Thu 11:51:48 PM 29.9775 -95.0378 260° West 271 312 4,000 -458 Level Houston Center
Thu 11:52:49 PM 29.9769 -95.1222 270° West 250 288 3,100 -885 Descending Houston Center

Login

Don't have an account? Register now (free) for customized features, flight alerts, and more!